Time;durP1;ratioP1;P1;durP2;ratioP2;P2;SDS_P1;SDS_P2;PMS_P1;PMS_P2;Temp;Humidity;BMP_temperature;BMP_pressure;BME280_temperature;BME280_humidity;BME280_pressure;Samples;Min_cycle;Max_cycle;Signal;HPM_P1;HPM_P2
2023/07/16 00:01:53;;;;;;;7.43;6.73;;;;;;;;;;5015176;28;20482;-76
2023/07/16 00:04:22;;;;;;;5.63;5.13;;;;;;;;;;5015331;28;20932;-75
2023/07/16 00:06:49;;;;;;;7.17;5.33;;;;;;;;;;5014972;28;20940;-76
2023/07/16 00:09:16;;;;;;;6.53;5.93;;;;;;;;;;5014949;28;20462;-76
2023/07/16 00:11:43;;;;;;;7.20;5.80;;;;;;;;;;5014752;28;20479;-76
2023/07/16 00:14:11;;;;;;;7.80;7.10;;;;;;;;;;5014338;28;20814;-76
2023/07/16 00:16:39;;;;;;;11.53;6.57;;;;;;;;;;5013860;28;20837;-75
2023/07/16 00:19:06;;;;;;;8.97;6.17;;;;;;;;;;5014654;28;20482;-75
2023/07/16 00:21:34;;;;;;;5.97;5.47;;;;;;;;;;5014775;28;20984;-76
2023/07/16 00:24:01;;;;;;;8.57;7.40;;;;;;;;;;5014613;28;20458;-75
2023/07/16 00:26:30;;;;;;;9.30;6.27;;;;;;;;;;5014490;28;20939;-75
2023/07/16 00:28:57;;;;;;;6.77;5.60;;;;;;;;;;5014568;28;20471;-75
2023/07/16 00:31:24;;;;;;;7.70;6.40;;;;;;;;;;5014643;28;20991;-75
2023/07/16 00:33:51;;;;;;;6.57;5.93;;;;;;;;;;5014512;28;20451;-76
2023/07/16 00:36:18;;;;;;;7.17;6.47;;;;;;;;;;5014457;28;20453;-75
2023/07/16 00:38:47;;;;;;;12.50;6.03;;;;;;;;;;5014274;28;20982;-75
2023/07/16 00:41:14;;;;;;;6.53;5.83;;;;;;;;;;5014479;28;20845;-75
2023/07/16 00:43:41;;;;;;;9.10;5.27;;;;;;;;;;5014303;28;20470;-75
2023/07/16 00:46:08;;;;;;;7.30;6.03;;;;;;;;;;5014302;28;20494;-75
2023/07/16 00:48:36;;;;;;;7.53;5.20;;;;;;;;;;5014148;28;20455;-75
2023/07/16 00:51:04;;;;;;;8.80;6.90;;;;;;;;;;5014103;28;20482;-75
2023/07/16 00:53:32;;;;;;;9.77;6.17;;;;;;;;;;5014228;28;20459;-76
2023/07/16 00:56:00;;;;;;;5.30;4.77;;;;;;;;;;5014131;28;20461;-75
2023/07/16 00:58:27;;;;;;;12.80;5.87;;;;;;;;;;5013899;28;21010;-75
2023/07/16 01:00:54;;;;;;;8.70;4.80;;;;;;;;;;5013959;28;20481;-75
2023/07/16 01:03:22;;;;;;;6.80;4.60;;;;;;;;;;5013978;28;20463;-75
2023/07/16 01:05:51;;;;;;;4.97;4.57;;;;;;;;;;5013987;28;20999;-75
2023/07/16 01:08:22;;;;;;;7.80;5.50;;;;;;;;;;5013735;28;20454;-75
2023/07/16 01:10:49;;;;;;;8.43;6.70;;;;;;;;;;5014174;28;20471;-75
2023/07/16 01:13:18;;;;;;;5.80;4.37;;;;;;;;;;5013345;28;20949;-76
2023/07/16 01:15:45;;;;;;;6.77;5.50;;;;;;;;;;5013870;28;20457;-75
2023/07/16 01:18:12;;;;;;;5.00;4.30;;;;;;;;;;5013666;28;20928;-75
2023/07/16 01:20:39;;;;;;;7.63;6.43;;;;;;;;;;5013534;28;20475;-75
2023/07/16 01:23:27;;;;;;;5.30;4.80;;;;;;;;;;5013696;28;20819;-75
2023/07/16 01:26:08;;;;;;;7.23;4.37;;;;;;;;;;5013768;28;21063;-75
2023/07/16 01:28:55;;;;;;;5.70;5.00;;;;;;;;;;5013173;28;20938;-75
2023/07/16 01:31:24;;;;;;;6.50;4.60;;;;;;;;;;5013549;28;20987;-75
2023/07/16 01:33:52;;;;;;;8.17;4.40;;;;;;;;;;5013690;28;20455;-75
2023/07/16 01:36:19;;;;;;;5.70;4.07;;;;;;;;;;5013755;28;20474;-75
2023/07/16 01:38:47;;;;;;;8.43;6.33;;;;;;;;;;5013564;28;20468;-75
2023/07/16 01:41:14;;;;;;;6.80;5.10;;;;;;;;;;5013455;28;20470;-75
2023/07/16 01:43:42;;;;;;;6.10;5.23;;;;;;;;;;5013402;28;20477;-75
2023/07/16 01:46:09;;;;;;;10.50;6.10;;;;;;;;;;5013346;28;20914;-75
2023/07/16 01:48:39;;;;;;;4.70;4.27;;;;;;;;;;5013113;28;20454;-75
2023/07/16 01:51:06;;;;;;;5.77;4.70;;;;;;;;;;5013291;28;20557;-75
2023/07/16 01:53:34;;;;;;;5.07;4.40;;;;;;;;;;5013224;28;20796;-75
2023/07/16 01:56:03;;;;;;;12.93;4.70;;;;;;;;;;5013172;28;20459;-75
2023/07/16 01:58:30;;;;;;;7.43;4.90;;;;;;;;;;5013044;28;20458;-75
2023/07/16 02:00:57;;;;;;;6.27;4.70;;;;;;;;;;5013256;28;20481;-75
2023/07/16 02:03:24;;;;;;;6.30;5.53;;;;;;;;;;5013220;28;20458;-75
2023/07/16 02:05:52;;;;;;;9.90;5.93;;;;;;;;;;5013296;28;20855;-75
2023/07/16 02:08:20;;;;;;;6.20;4.30;;;;;;;;;;5012895;28;20461;-75
2023/07/16 02:10:49;;;;;;;6.03;4.17;;;;;;;;;;5013113;28;20481;-75
2023/07/16 02:13:16;;;;;;;3.80;3.50;;;;;;;;;;5012565;28;20461;-75
2023/07/16 02:15:44;;;;;;;7.30;3.93;;;;;;;;;;5013037;28;20538;-75
2023/07/16 02:18:11;;;;;;;5.63;3.63;;;;;;;;;;5012897;28;20458;-75
2023/07/16 02:20:38;;;;;;;5.60;4.30;;;;;;;;;;5012814;28;21007;-75
2023/07/16 02:23:07;;;;;;;4.20;3.73;;;;;;;;;;5012767;28;20477;-75
2023/07/16 02:25:34;;;;;;;9.20;5.87;;;;;;;;;;5012823;28;20483;-75
2023/07/16 02:28:02;;;;;;;5.50;4.23;;;;;;;;;;5012912;28;20446;-75
2023/07/16 02:30:29;;;;;;;6.37;3.77;;;;;;;;;;5012966;28;20478;-75
2023/07/16 02:32:56;;;;;;;4.80;4.03;;;;;;;;;;5013131;28;20459;-75
2023/07/16 02:35:23;;;;;;;6.53;3.93;;;;;;;;;;5012692;28;20458;-75
2023/07/16 02:37:50;;;;;;;5.20;3.80;;;;;;;;;;5012774;28;20454;-75
2023/07/16 02:40:19;;;;;;;8.60;3.80;;;;;;;;;;5014745;28;20454;-75
2023/07/16 02:42:46;;;;;;;6.00;4.10;;;;;;;;;;5016653;28;20458;-76
2023/07/16 02:45:13;;;;;;;5.00;4.17;;;;;;;;;;5016754;28;20451;-76
2023/07/16 02:47:40;;;;;;;5.07;3.60;;;;;;;;;;5016207;28;20494;-75
2023/07/16 02:50:08;;;;;;;5.97;5.40;;;;;;;;;;5016431;28;20465;-75
2023/07/16 02:52:35;;;;;;;11.63;4.63;;;;;;;;;;5016353;28;20472;-75
2023/07/16 02:55:02;;;;;;;6.80;4.10;;;;;;;;;;5016508;28;20450;-75
2023/07/16 02:57:31;;;;;;;5.37;4.40;;;;;;;;;;5016050;28;20450;-75
2023/07/16 02:59:58;;;;;;;4.70;4.30;;;;;;;;;;5016336;28;20458;-75
2023/07/16 03:02:25;;;;;;;6.77;4.47;;;;;;;;;;5016130;28;20911;-75
2023/07/16 03:04:52;;;;;;;6.70;4.10;;;;;;;;;;5016322;28;20462;-75
2023/07/16 03:07:19;;;;;;;5.47;4.20;;;;;;;;;;5015812;28;20497;-75
2023/07/16 03:09:46;;;;;;;5.90;4.70;;;;;;;;;;5016259;28;20848;-75
2023/07/16 03:12:13;;;;;;;4.90;4.40;;;;;;;;;;5015584;28;20467;-75
2023/07/16 03:14:42;;;;;;;4.90;4.13;;;;;;;;;;5015996;28;20459;-75
2023/07/16 03:17:09;;;;;;;6.80;4.67;;;;;;;;;;5015966;28;20451;-75
2023/07/16 03:19:36;;;;;;;5.47;4.93;;;;;;;;;;5015966;28;20454;-75
2023/07/16 03:22:03;;;;;;;6.30;4.63;;;;;;;;;;5015818;28;20467;-75
2023/07/16 03:24:31;;;;;;;5.43;4.60;;;;;;;;;;5015721;28;20872;-75
2023/07/16 03:26:58;;;;;;;5.70;5.20;;;;;;;;;;5015715;28;20494;-75
2023/07/16 03:29:25;;;;;;;6.23;4.20;;;;;;;;;;5015586;28;20464;-75
2023/07/16 03:31:53;;;;;;;5.20;4.07;;;;;;;;;;5015717;28;20482;-75
2023/07/16 03:34:21;;;;;;;6.57;4.93;;;;;;;;;;5015059;28;20454;-75
2023/07/16 03:36:48;;;;;;;5.40;4.90;;;;;;;;;;5015001;28;20462;-75
2023/07/16 03:39:15;;;;;;;4.87;4.43;;;;;;;;;;5015180;28;20478;-75
2023/07/16 03:41:42;;;;;;;7.60;5.33;;;;;;;;;;5014927;28;20918;-75
2023/07/16 03:44:10;;;;;;;5.90;5.30;;;;;;;;;;5014893;28;20454;-75
2023/07/16 03:46:37;;;;;;;10.37;4.43;;;;;;;;;;5014661;28;20483;-75
2023/07/16 03:49:08;;;;;;;6.17;5.13;;;;;;;;;;5014747;28;20800;-75
2023/07/16 03:51:35;;;;;;;4.97;4.10;;;;;;;;;;5014576;28;20463;-75
2023/07/16 03:54:02;;;;;;;4.30;3.90;;;;;;;;;;5014883;28;20536;-75
2023/07/16 03:56:29;;;;;;;6.20;5.00;;;;;;;;;;5014605;28;20447;-75
2023/07/16 03:58:56;;;;;;;4.87;4.40;;;;;;;;;;5014540;28;20459;-75
2023/07/16 04:01:23;;;;;;;6.67;5.00;;;;;;;;;;5014492;28;20478;-75
2023/07/16 04:03:51;;;;;;;5.57;4.23;;;;;;;;;;5014530;28;20450;-75
2023/07/16 04:06:19;;;;;;;4.67;4.20;;;;;;;;;;5014598;28;21007;-75
2023/07/16 04:08:46;;;;;;;6.70;4.77;;;;;;;;;;5014279;28;20818;-76
2023/07/16 04:11:13;;;;;;;7.93;5.13;;;;;;;;;;5014643;28;20474;-76
2023/07/16 04:13:40;;;;;;;4.63;4.13;;;;;;;;;;5014182;28;20459;-75
2023/07/16 04:16:07;;;;;;;8.23;4.40;;;;;;;;;;5014505;28;20450;-75
2023/07/16 04:18:34;;;;;;;4.37;3.97;;;;;;;;;;5014090;28;20472;-75
2023/07/16 04:21:02;;;;;;;7.13;5.40;;;;;;;;;;5014223;28;20474;-75
2023/07/16 04:23:30;;;;;;;4.57;4.17;;;;;;;;;;5013898;28;20960;-75
2023/07/16 04:25:57;;;;;;;4.80;4.37;;;;;;;;;;5014134;28;20459;-75
2023/07/16 04:28:24;;;;;;;5.13;4.30;;;;;;;;;;5013982;28;20461;-75
2023/07/16 04:30:51;;;;;;;6.20;4.73;;;;;;;;;;5014303;28;20843;-75
2023/07/16 04:33:19;;;;;;;4.40;4.00;;;;;;;;;;5014177;28;20455;-75
2023/07/16 04:35:46;;;;;;;6.77;4.20;;;;;;;;;;5013828;28;20458;-75
2023/07/16 04:38:13;;;;;;;9.20;4.30;;;;;;;;;;5013764;28;20443;-75
2023/07/16 04:40:43;;;;;;;5.87;3.60;;;;;;;;;;5013737;28;20538;-75
2023/07/16 04:43:10;;;;;;;4.77;4.20;;;;;;;;;;5013899;28;20480;-75
2023/07/16 04:45:38;;;;;;;8.83;4.27;;;;;;;;;;5013666;28;20463;-75
2023/07/16 04:48:06;;;;;;;6.70;4.70;;;;;;;;;;5013756;28;20495;-75
2023/07/16 04:50:33;;;;;;;4.40;4.00;;;;;;;;;;5013713;28;20478;-75
2023/07/16 04:53:00;;;;;;;5.07;4.57;;;;;;;;;;5013709;28;20471;-75
2023/07/16 04:55:27;;;;;;;6.73;5.17;;;;;;;;;;5013665;28;20482;-75
2023/07/16 04:57:56;;;;;;;4.50;4.10;;;;;;;;;;5013735;28;20450;-75
2023/07/16 05:00:24;;;;;;;6.03;5.07;;;;;;;;;;5013601;28;20482;-75
2023/07/16 05:02:51;;;;;;;5.80;4.57;;;;;;;;;;5012872;28;20450;-75
2023/07/16 05:05:18;;;;;;;14.40;6.40;;;;;;;;;;5013563;28;20932;-75
2023/07/16 05:07:45;;;;;;;6.90;5.77;;;;;;;;;;5013134;28;20501;-75
2023/07/16 05:10:12;;;;;;;6.90;5.10;;;;;;;;;;5013437;28;20902;-75
2023/07/16 05:12:39;;;;;;;7.63;6.17;;;;;;;;;;5012894;28;20461;-75
2023/07/16 05:15:09;;;;;;;7.27;6.13;;;;;;;;;;5013477;28;20454;-75
2023/07/16 05:17:36;;;;;;;7.07;6.30;;;;;;;;;;5013027;28;20457;-75
2023/07/16 05:20:03;;;;;;;7.40;6.13;;;;;;;;;;5013299;28;20965;-75
2023/07/16 05:22:30;;;;;;;9.23;5.80;;;;;;;;;;5013302;28;20958;-75
2023/07/16 05:24:58;;;;;;;7.00;6.40;;;;;;;;;;5013443;28;20451;-75
2023/07/16 05:27:25;;;;;;;6.93;6.20;;;;;;;;;;5012930;28;20493;-75
2023/07/16 05:29:52;;;;;;;6.97;6.03;;;;;;;;;;5013255;28;20463;-75
2023/07/16 05:32:20;;;;;;;8.17;7.37;;;;;;;;;;5012987;28;20483;-75
2023/07/16 05:34:47;;;;;;;7.03;5.97;;;;;;;;;;5013265;28;20467;-76
2023/07/16 05:37:15;;;;;;;7.03;6.33;;;;;;;;;;5012903;28;20982;-76
2023/07/16 05:39:42;;;;;;;8.73;6.10;;;;;;;;;;5015951;28;20446;-76
2023/07/16 05:42:09;;;;;;;7.00;5.97;;;;;;;;;;5032666;28;20833;-76
2023/07/16 05:44:36;;;;;;;6.30;5.40;;;;;;;;;;5032147;28;20457;-76
2023/07/16 05:47:04;;;;;;;7.80;7.00;;;;;;;;;;5031786;28;20516;-76
2023/07/16 05:49:32;;;;;;;8.73;6.10;;;;;;;;;;5032296;28;20495;-76
2023/07/16 05:51:59;;;;;;;6.43;5.73;;;;;;;;;;5032292;28;20481;-77
2023/07/16 05:54:26;;;;;;;9.50;6.20;;;;;;;;;;5032492;28;20936;-77
2023/07/16 05:56:54;;;;;;;8.50;5.93;;;;;;;;;;5032280;28;20454;-76
2023/07/16 05:59:21;;;;;;;6.60;6.00;;;;;;;;;;5032436;28;20449;-77
2023/07/16 06:01:48;;;;;;;5.13;4.63;;;;;;;;;;5032117;28;20473;-77
2023/07/16 06:04:15;;;;;;;8.23;5.80;;;;;;;;;;5032605;28;20476;-77
2023/07/16 06:06:44;;;;;;;6.47;5.87;;;;;;;;;;5032499;28;20496;-77
2023/07/16 06:09:11;;;;;;;6.30;5.60;;;;;;;;;;5032364;28;20452;-77
2023/07/16 06:11:38;;;;;;;7.60;5.60;;;;;;;;;;5032675;28;21001;-77
2023/07/16 06:14:05;;;;;;;5.60;5.10;;;;;;;;;;5033985;28;20457;-77
2023/07/16 06:16:32;;;;;;;7.37;5.97;;;;;;;;;;5036280;28;20469;-77
2023/07/16 06:18:59;;;;;;;6.30;5.50;;;;;;;;;;5036693;28;20468;-77
2023/07/16 06:21:26;;;;;;;6.90;5.47;;;;;;;;;;5036524;28;21005;-77
2023/07/16 06:23:55;;;;;;;7.73;6.90;;;;;;;;;;5036310;28;20461;-77
2023/07/16 06:26:22;;;;;;;6.47;5.87;;;;;;;;;;5036645;28;20453;-77
2023/07/16 06:28:49;;;;;;;6.03;5.53;;;;;;;;;;5035952;28;20512;-77
2023/07/16 06:31:17;;;;;;;7.23;5.17;;;;;;;;;;5035675;28;20829;-77
2023/07/16 06:33:46;;;;;;;6.20;5.03;;;;;;;;;;5035605;28;20453;-77
2023/07/16 06:36:13;;;;;;;6.20;5.40;;;;;;;;;;5036248;28;20833;-77
2023/07/16 06:38:40;;;;;;;11.43;5.70;;;;;;;;;;5035985;28;20454;-77
2023/07/16 06:41:09;;;;;;;6.33;4.57;;;;;;;;;;5035686;28;20473;-77
2023/07/16 06:43:36;;;;;;;7.50;5.93;;;;;;;;;;5036067;28;20830;-77
2023/07/16 06:46:03;;;;;;;5.63;4.93;;;;;;;;;;5032885;28;20457;-76
2023/07/16 06:48:30;;;;;;;6.27;5.67;;;;;;;;;;5015636;28;20988;-77
2023/07/16 06:50:57;;;;;;;5.70;5.10;;;;;;;;;;5016104;28;20497;-77
2023/07/16 06:53:24;;;;;;;4.93;4.40;;;;;;;;;;5015610;28;20454;-77
2023/07/16 06:55:52;;;;;;;5.07;4.57;;;;;;;;;;5016175;28;20947;-77
2023/07/16 06:58:20;;;;;;;11.30;4.37;;;;;;;;;;5015797;28;20459;-77
2023/07/16 07:00:47;;;;;;;6.40;4.70;;;;;;;;;;5015747;28;20474;-77
2023/07/16 07:03:14;;;;;;;4.57;4.17;;;;;;;;;;5016200;28;20978;-76
2023/07/16 07:05:42;;;;;;;4.43;4.03;;;;;;;;;;5015819;28;20474;-77
2023/07/16 07:08:09;;;;;;;6.33;4.93;;;;;;;;;;5015757;28;20558;-77
2023/07/16 07:10:39;;;;;;;5.80;4.73;;;;;;;;;;5015279;28;20510;-77
2023/07/16 07:13:06;;;;;;;6.93;4.17;;;;;;;;;;5015436;28;20840;-76
2023/07/16 07:15:35;;;;;;;5.17;4.23;;;;;;;;;;5015672;28;20454;-77
2023/07/16 07:18:02;;;;;;;8.20;4.93;;;;;;;;;;5015225;28;20453;-77
2023/07/16 07:20:29;;;;;;;5.20;4.50;;;;;;;;;;5004729;28;20482;-77
2023/07/16 07:22:56;;;;;;;5.80;4.60;;;;;;;;;;5005788;28;20467;-76
2023/07/16 07:25:23;;;;;;;6.70;4.30;;;;;;;;;;4997618;28;20447;-77
2023/07/16 07:27:50;;;;;;;4.57;4.17;;;;;;;;;;4995714;28;20488;-77
2023/07/16 07:30:18;;;;;;;4.47;3.80;;;;;;;;;;4996054;28;20455;-77
2023/07/16 07:32:46;;;;;;;4.77;4.37;;;;;;;;;;4995948;28;20948;-77
2023/07/16 07:35:14;;;;;;;4.13;3.73;;;;;;;;;;5004290;28;20822;-77
2023/07/16 07:37:41;;;;;;;4.50;4.10;;;;;;;;;;5005062;28;20447;-77
2023/07/16 07:40:08;;;;;;;5.07;4.57;;;;;;;;;;5006054;28;20450;-77
2023/07/16 07:42:35;;;;;;;4.17;3.83;;;;;;;;;;5004202;28;20455;-77
2023/07/16 07:45:03;;;;;;;5.30;4.40;;;;;;;;;;5004980;28;20944;-77
2023/07/16 07:47:30;;;;;;;5.63;4.23;;;;;;;;;;5000347;28;20487;-77
2023/07/16 07:49:58;;;;;;;6.43;4.43;;;;;;;;;;4996049;28;20456;-77
2023/07/16 07:52:25;;;;;;;5.00;4.00;;;;;;;;;;4995711;28;20492;-77
2023/07/16 07:54:53;;;;;;;6.00;5.40;;;;;;;;;;4996097;28;20454;-77
2023/07/16 07:57:21;;;;;;;7.23;6.53;;;;;;;;;;4995721;28;20448;-77
2023/07/16 07:59:51;;;;;;;3.80;3.50;;;;;;;;;;4995665;28;20554;-77
2023/07/16 08:02:21;;;;;;;3.90;3.60;;;;;;;;;;4995603;28;20488;-77
2023/07/16 08:04:48;;;;;;;6.93;4.37;;;;;;;;;;4997902;28;20952;-77
2023/07/16 08:07:17;;;;;;;5.47;3.60;;;;;;;;;;5004858;28;20468;-77
2023/07/16 08:09:44;;;;;;;4.03;2.80;;;;;;;;;;5004210;28;20460;-77
2023/07/16 08:12:11;;;;;;;3.53;3.23;;;;;;;;;;5004634;28;20467;-76
2023/07/16 08:14:38;;;;;;;3.27;2.97;;;;;;;;;;4997787;28;20562;-77
2023/07/16 08:17:06;;;;;;;3.00;2.70;;;;;;;;;;4995193;28;20478;-75
2023/07/16 08:19:33;;;;;;;4.27;3.07;;;;;;;;;;4995534;28;20976;-77
2023/07/16 08:22:00;;;;;;;3.40;2.43;;;;;;;;;;4995844;28;20484;-78
2023/07/16 08:24:29;;;;;;;2.17;1.97;;;;;;;;;;4994832;28;20804;-76
2023/07/16 08:26:56;;;;;;;2.67;1.90;;;;;;;;;;4995148;28;20464;-77
2023/07/16 08:29:23;;;;;;;3.70;2.60;;;;;;;;;;4994808;28;20870;-77
2023/07/16 08:31:50;;;;;;;2.40;1.97;;;;;;;;;;4994658;28;20494;-75
2023/07/16 08:34:17;;;;;;;2.50;2.23;;;;;;;;;;4995256;28;20805;-77
2023/07/16 08:36:44;;;;;;;2.30;2.10;;;;;;;;;;4995820;28;20455;-77
2023/07/16 08:39:12;;;;;;;4.03;2.33;;;;;;;;;;4997224;28;20451;-77
2023/07/16 08:41:40;;;;;;;2.13;1.90;;;;;;;;;;4995547;28;20523;-75
2023/07/16 08:44:07;;;;;;;3.60;2.57;;;;;;;;;;4997439;28;20474;-77
2023/07/16 08:46:35;;;;;;;5.43;4.93;;;;;;;;;;4997030;28;20504;-77
2023/07/16 08:49:03;;;;;;;6.13;2.73;;;;;;;;;;4995421;28;20848;-77
2023/07/16 08:51:31;;;;;;;2.57;2.23;;;;;;;;;;4994529;28;20495;-77
2023/07/16 08:53:58;;;;;;;2.30;2.10;;;;;;;;;;4994399;28;20458;-77
2023/07/16 08:56:26;;;;;;;3.20;2.10;;;;;;;;;;4993924;28;20463;-77
2023/07/16 08:58:55;;;;;;;2.20;2.00;;;;;;;;;;4994225;28;20462;-77
2023/07/16 09:01:22;;;;;;;2.90;2.17;;;;;;;;;;4994245;28;20904;-77
2023/07/16 09:03:49;;;;;;;2.20;1.90;;;;;;;;;;4994020;28;20511;-77
2023/07/16 09:06:17;;;;;;;2.43;2.00;;;;;;;;;;4994044;28;20833;-77
2023/07/16 09:08:44;;;;;;;2.57;2.23;;;;;;;;;;4993817;28;20488;-77
2023/07/16 09:11:13;;;;;;;2.30;2.10;;;;;;;;;;4993927;28;20467;-77
2023/07/16 09:13:45;;;;;;;4.13;2.27;;;;;;;;;;4993324;28;20529;-77
2023/07/16 09:16:16;;;;;;;3.10;2.53;;;;;;;;;;4993820;28;20467;-77
2023/07/16 09:18:43;;;;;;;2.70;2.10;;;;;;;;;;4993588;28;20488;-77
2023/07/16 09:21:10;;;;;;;3.83;2.97;;;;;;;;;;4994204;28;20478;-77
2023/07/16 09:23:38;;;;;;;3.23;3.03;;;;;;;;;;4993547;28;20852;-77
2023/07/16 09:26:05;;;;;;;3.07;2.87;;;;;;;;;;4993884;28;20886;-77
2023/07/16 09:28:32;;;;;;;3.90;2.70;;;;;;;;;;4993547;28;20494;-77
2023/07/16 09:31:05;;;;;;;2.50;2.30;;;;;;;;;;4993855;28;20483;-77
2023/07/16 09:33:33;;;;;;;2.63;2.37;;;;;;;;;;4993804;28;20486;-77
2023/07/16 09:36:02;;;;;;;3.17;2.27;;;;;;;;;;4993824;28;20474;-77
2023/07/16 09:38:30;;;;;;;10.13;3.13;;;;;;;;;;4993127;28;20458;-77
2023/07/16 09:40:57;;;;;;;3.40;2.60;;;;;;;;;;4993490;28;20472;-77
2023/07/16 09:43:25;;;;;;;5.77;2.90;;;;;;;;;;4993439;28;20531;-77
2023/07/16 09:45:52;;;;;;;3.23;2.90;;;;;;;;;;4993475;28;20452;-77
2023/07/16 09:48:19;;;;;;;3.00;2.80;;;;;;;;;;4992755;28;20862;-77
2023/07/16 09:50:51;;;;;;;2.57;2.37;;;;;;;;;;4993067;28;20471;-77
2023/07/16 09:53:20;;;;;;;3.60;2.57;;;;;;;;;;4993388;28;20514;-77
2023/07/16 09:55:48;;;;;;;3.87;2.63;;;;;;;;;;4994964;28;20469;-77
2023/07/16 09:58:16;;;;;;;3.03;2.83;;;;;;;;;;4995901;28;20862;-76
2023/07/16 10:00:44;;;;;;;3.03;2.73;;;;;;;;;;4992995;28;20530;-76
2023/07/16 10:03:11;;;;;;;2.87;2.67;;;;;;;;;;4993531;28;20468;-75
2023/07/16 10:05:38;;;;;;;3.80;2.90;;;;;;;;;;4993005;28;20460;-76
2023/07/16 10:08:17;;;;;;;2.93;2.53;;;;;;;;;;4992945;28;20506;-76
2023/07/16 10:10:45;;;;;;;3.50;2.80;;;;;;;;;;4993462;28;20475;-76
2023/07/16 10:13:13;;;;;;;2.40;2.13;;;;;;;;;;4992782;28;20456;-75
2023/07/16 10:15:42;;;;;;;3.10;2.40;;;;;;;;;;4993471;28;20468;-76
2023/07/16 10:18:09;;;;;;;6.63;2.60;;;;;;;;;;4992882;28;20458;-76
2023/07/16 10:20:42;;;;;;;3.00;2.30;;;;;;;;;;4992870;28;20468;-76
2023/07/16 10:23:14;;;;;;;4.80;2.87;;;;;;;;;;4993377;28;20482;-76
2023/07/16 10:25:41;;;;;;;3.33;2.90;;;;;;;;;;4993477;28;20459;-76
2023/07/16 10:28:08;;;;;;;2.90;2.60;;;;;;;;;;4994332;28;21000;-75
2023/07/16 10:30:35;;;;;;;2.67;2.47;;;;;;;;;;4993947;28;20479;-75
2023/07/16 10:33:06;;;;;;;2.70;2.50;;;;;;;;;;4995640;28;20553;-75
2023/07/16 10:35:36;;;;;;;3.20;2.43;;;;;;;;;;4993527;28;20509;-77
2023/07/16 10:38:03;;;;;;;2.50;1.90;;;;;;;;;;4993393;28;20889;-75
2023/07/16 10:40:31;;;;;;;3.33;2.77;;;;;;;;;;4992975;28;20479;-77
2023/07/16 10:42:58;;;;;;;3.60;2.53;;;;;;;;;;4992807;28;20455;-77
2023/07/16 10:45:25;;;;;;;3.23;2.93;;;;;;;;;;4992811;28;20463;-77
2023/07/16 10:47:53;;;;;;;2.73;2.53;;;;;;;;;;4992529;28;20463;-77
2023/07/16 10:50:21;;;;;;;4.90;4.50;;;;;;;;;;4992725;28;20451;-77
2023/07/16 10:52:51;;;;;;;3.27;2.90;;;;;;;;;;4993174;28;20451;-76
2023/07/16 10:55:19;;;;;;;2.90;2.70;;;;;;;;;;4993064;28;20455;-76
2023/07/16 10:57:48;;;;;;;3.03;2.70;;;;;;;;;;4992530;28;20463;-76
2023/07/16 11:00:16;;;;;;;3.90;2.80;;;;;;;;;;4992999;28;20467;-76
2023/07/16 11:02:44;;;;;;;2.87;2.37;;;;;;;;;;4996175;28;20467;-76
2023/07/16 11:05:11;;;;;;;3.00;2.53;;;;;;;;;;4996309;28;20498;-76
2023/07/16 11:07:38;;;;;;;2.33;2.13;;;;;;;;;;4995962;28;20526;-76
2023/07/16 11:10:06;;;;;;;2.80;2.50;;;;;;;;;;4995878;28;20498;-76
2023/07/16 11:12:33;;;;;;;3.03;2.63;;;;;;;;;;4995716;28;20513;-77
2023/07/16 11:15:02;;;;;;;2.70;2.50;;;;;;;;;;4995704;28;20462;-77
2023/07/16 11:17:29;;;;;;;2.90;2.60;;;;;;;;;;4995420;28;20465;-76
2023/07/16 11:19:56;;;;;;;3.10;2.80;;;;;;;;;;4995776;28;20454;-76
2023/07/16 11:22:26;;;;;;;2.47;2.20;;;;;;;;;;4995329;28;20488;-76
2023/07/16 11:24:54;;;;;;;2.73;2.50;;;;;;;;;;4995670;28;21022;-76
2023/07/16 11:27:22;;;;;;;2.30;2.10;;;;;;;;;;4995362;28;20547;-76
2023/07/16 11:29:50;;;;;;;3.87;3.57;;;;;;;;;;4995572;28;20490;-76
2023/07/16 11:32:28;;;;;;;3.30;2.77;;;;;;;;;;4995795;28;20475;-76
2023/07/16 11:34:56;;;;;;;2.77;2.57;;;;;;;;;;4995666;28;20455;-76
2023/07/16 11:37:23;;;;;;;3.97;2.57;;;;;;;;;;4995715;28;20451;-76
2023/07/16 11:39:50;;;;;;;2.60;2.40;;;;;;;;;;4995489;28;20782;-76
2023/07/16 11:42:20;;;;;;;3.30;2.57;;;;;;;;;;4995463;28;20479;-76
2023/07/16 11:44:50;;;;;;;2.83;2.47;;;;;;;;;;4995273;28;20459;-76
2023/07/16 11:47:17;;;;;;;3.77;3.30;;;;;;;;;;4995120;28;20509;-76
2023/07/16 11:49:46;;;;;;;3.00;2.67;;;;;;;;;;4995250;28;20550;-76
2023/07/16 11:52:13;;;;;;;3.63;3.33;;;;;;;;;;4995122;28;20475;-76
2023/07/16 11:54:40;;;;;;;2.80;2.60;;;;;;;;;;4995090;28;20459;-76
2023/07/16 11:57:08;;;;;;;2.90;2.70;;;;;;;;;;4995130;28;20797;-76
2023/07/16 11:59:35;;;;;;;3.40;2.80;;;;;;;;;;4995010;28;20466;-76
2023/07/16 12:02:02;;;;;;;4.07;2.77;;;;;;;;;;4994725;28;20482;-76
2023/07/16 12:04:29;;;;;;;3.20;2.90;;;;;;;;;;4995110;28;20468;-76
2023/07/16 12:06:58;;;;;;;3.97;3.10;;;;;;;;;;4994602;28;20448;-76
2023/07/16 12:09:25;;;;;;;2.93;2.30;;;;;;;;;;4994466;28;20491;-76
2023/07/16 12:11:52;;;;;;;2.93;2.47;;;;;;;;;;4994425;28;20467;-76
2023/07/16 12:14:19;;;;;;;3.80;3.40;;;;;;;;;;4994391;28;20455;-76
2023/07/16 12:16:46;;;;;;;3.03;2.40;;;;;;;;;;4994564;28;20459;-75
2023/07/16 12:19:13;;;;;;;2.93;2.70;;;;;;;;;;4994511;28;20459;-76
2023/07/16 12:21:40;;;;;;;3.10;2.80;;;;;;;;;;4994599;28;20484;-76
2023/07/16 12:24:09;;;;;;;11.03;7.13;;;;;;;;;;4994409;28;20850;-76
2023/07/16 12:26:37;;;;;;;3.20;2.90;;;;;;;;;;4994513;28;20984;-76
2023/07/16 12:29:04;;;;;;;8.47;2.60;;;;;;;;;;4994204;28;20530;-76
2023/07/16 12:31:32;;;;;;;4.93;2.73;;;;;;;;;;4994312;28;20542;-76
2023/07/16 12:33:59;;;;;;;2.77;2.57;;;;;;;;;;4994515;28;20460;-76
2023/07/16 12:36:26;;;;;;;2.63;2.43;;;;;;;;;;4994520;28;20462;-76
2023/07/16 12:38:53;;;;;;;2.53;2.33;;;;;;;;;;4994101;28;20472;-76
2023/07/16 12:41:21;;;;;;;2.73;2.53;;;;;;;;;;4994171;28;20476;-76
2023/07/16 12:43:49;;;;;;;3.63;2.67;;;;;;;;;;4994032;28;20458;-76
2023/07/16 12:46:16;;;;;;;3.07;2.80;;;;;;;;;;4993978;28;20456;-76
2023/07/16 12:48:43;;;;;;;3.60;2.40;;;;;;;;;;4993782;28;20937;-76
2023/07/16 12:51:10;;;;;;;2.60;2.40;;;;;;;;;;4994111;28;20472;-76
2023/07/16 12:53:38;;;;;;;6.23;2.77;;;;;;;;;;4993921;28;20470;-76
2023/07/16 12:56:05;;;;;;;2.93;2.67;;;;;;;;;;4993957;28;20825;-76
2023/07/16 12:58:34;;;;;;;2.90;2.53;;;;;;;;;;4993751;28;20479;-76
2023/07/16 13:01:01;;;;;;;3.90;2.90;;;;;;;;;;4993923;28;20506;-76
2023/07/16 13:03:28;;;;;;;3.17;2.87;;;;;;;;;;4993882;28;20812;-76
2023/07/16 13:05:55;;;;;;;3.20;2.70;;;;;;;;;;4993818;28;20456;-76
2023/07/16 13:08:23;;;;;;;2.90;2.70;;;;;;;;;;4993521;28;20451;-76
2023/07/16 13:10:50;;;;;;;5.93;4.10;;;;;;;;;;4993565;28;20492;-76
2023/07/16 13:13:17;;;;;;;3.37;3.07;;;;;;;;;;4993493;28;20475;-76
2023/07/16 13:15:46;;;;;;;3.53;2.50;;;;;;;;;;4993472;28;20452;-77
2023/07/16 13:18:13;;;;;;;3.37;2.93;;;;;;;;;;4993606;28;20448;-76
2023/07/16 13:20:40;;;;;;;2.87;2.50;;;;;;;;;;4993835;28;20495;-77
2023/07/16 13:23:08;;;;;;;2.90;2.60;;;;;;;;;;4992958;28;20467;-76
2023/07/16 13:25:35;;;;;;;3.70;3.00;;;;;;;;;;4993449;28;20451;-76
2023/07/16 13:28:02;;;;;;;3.13;2.83;;;;;;;;;;4993559;28;20447;-75
2023/07/16 13:30:29;;;;;;;4.17;2.80;;;;;;;;;;4993958;28;20502;-78
2023/07/16 13:32:58;;;;;;;3.80;3.37;;;;;;;;;;4993728;28;20463;-76
2023/07/16 13:35:25;;;;;;;2.80;2.60;;;;;;;;;;4993529;28;20456;-75
2023/07/16 13:37:52;;;;;;;3.33;3.03;;;;;;;;;;5001917;28;20472;-76
2023/07/16 13:40:20;;;;;;;3.73;2.40;;;;;;;;;;5033420;28;20462;-78
2023/07/16 13:42:47;;;;;;;4.00;3.20;;;;;;;;;;5035256;28;20464;-78
2023/07/16 13:45:14;;;;;;;3.87;3.57;;;;;;;;;;5035460;28;20458;-77
2023/07/16 13:47:42;;;;;;;6.93;3.23;;;;;;;;;;5034919;28;20465;-77
2023/07/16 13:50:11;;;;;;;4.50;3.30;;;;;;;;;;5034737;28;20486;-78
2023/07/16 13:52:38;;;;;;;3.43;3.13;;;;;;;;;;5033346;28;20968;-75
2023/07/16 13:55:06;;;;;;;3.60;3.30;;;;;;;;;;5032460;28;20454;-76
2023/07/16 13:57:33;;;;;;;3.30;3.10;;;;;;;;;;5032270;28;20946;-75
2023/07/16 14:00:00;;;;;;;3.73;3.43;;;;;;;;;;5033242;28;20453;-76
2023/07/16 14:02:28;;;;;;;3.13;2.93;;;;;;;;;;5035488;28;20491;-78
2023/07/16 14:04:55;;;;;;;8.77;2.53;;;;;;;;;;5032658;28;20969;-76
2023/07/16 14:07:23;;;;;;;4.30;3.23;;;;;;;;;;5031946;28;20477;-76
2023/07/16 14:09:50;;;;;;;3.27;2.97;;;;;;;;;;5032380;28;20958;-76
2023/07/16 14:12:18;;;;;;;4.57;2.87;;;;;;;;;;5031715;28;20477;-76
2023/07/16 14:14:45;;;;;;;3.43;3.13;;;;;;;;;;5032234;28;20920;-76
2023/07/16 14:17:12;;;;;;;3.47;3.17;;;;;;;;;;5032057;28;20454;-76
2023/07/16 14:19:39;;;;;;;3.10;2.80;;;;;;;;;;5032015;28;20452;-76
2023/07/16 14:22:06;;;;;;;3.20;2.90;;;;;;;;;;5031950;28;20470;-76
2023/07/16 14:24:35;;;;;;;2.83;2.60;;;;;;;;;;5032524;28;20928;-74
2023/07/16 14:27:02;;;;;;;3.00;2.70;;;;;;;;;;5006337;28;20459;-74
2023/07/16 14:29:30;;;;;;;3.33;2.50;;;;;;;;;;5006309;28;20483;-75
2023/07/16 14:31:57;;;;;;;3.03;2.73;;;;;;;;;;5002578;28;20475;-75
2023/07/16 14:34:24;;;;;;;4.90;2.53;;;;;;;;;;5000736;28;20459;-76
2023/07/16 14:36:51;;;;;;;3.17;2.87;;;;;;;;;;5004976;28;20458;-75
2023/07/16 14:39:18;;;;;;;3.40;3.10;;;;;;;;;;5007000;28;20542;-76
2023/07/16 14:41:47;;;;;;;3.30;2.93;;;;;;;;;;5006508;28;20482;-75
2023/07/16 14:44:14;;;;;;;3.20;2.90;;;;;;;;;;5005899;28;20456;-76
2023/07/16 14:46:41;;;;;;;3.53;2.83;;;;;;;;;;4999411;28;20455;-76